Time;durP1;ratioP1;P1;durP2;ratioP2;P2;SDS_P1;SDS_P2;PMS_P1;PMS_P2;Temp;Humidity;BMP_temperature;BMP_pressure;BME280_temperature;BME280_humidity;BME280_pressure;Samples;Min_cycle;Max_cycle;Signal;HPM_P1;HPM_P2
2021/05/11 00:00:12;;;;;;;1.47;0.97;;;;;;;;;;4983795;28;20445;-78
2021/05/11 00:02:37;;;;;;;1.50;1.00;;;;;;;;;;4991114;28;20388;-77
2021/05/11 00:05:03;;;;;;;1.30;0.90;;;;;;;;;;4986450;28;20550;-77
2021/05/11 00:07:28;;;;;;;1.75;0.93;;;;;;;;;;5002894;28;20064;-77
2021/05/11 00:09:53;;;;;;;1.53;0.80;;;;;;;;;;4990427;28;20038;-77
2021/05/11 00:12:19;;;;;;;1.47;0.80;;;;;;;;;;4990916;28;20049;-77
2021/05/11 00:14:44;;;;;;;1.30;0.80;;;;;;;;;;4979056;28;20036;-77
2021/05/11 00:17:09;;;;;;;1.40;0.80;;;;;;;;;;4966848;28;20049;-77
2021/05/11 00:19:35;;;;;;;2.17;1.07;;;;;;;;;;4975650;28;20070;-77
2021/05/11 00:22:01;;;;;;;1.13;0.90;;;;;;;;;;4980667;28;20049;-77
2021/05/11 00:24:26;;;;;;;1.13;0.80;;;;;;;;;;4966637;28;20079;-77
2021/05/11 00:26:51;;;;;;;1.97;1.10;;;;;;;;;;4966675;28;20064;-77
2021/05/11 00:29:17;;;;;;;1.70;0.90;;;;;;;;;;4973070;28;20125;-77
2021/05/11 00:31:42;;;;;;;1.10;0.83;;;;;;;;;;4977392;28;20064;-77
2021/05/11 00:34:07;;;;;;;1.40;0.83;;;;;;;;;;4985925;28;20061;-78
2021/05/11 00:36:33;;;;;;;1.87;0.90;;;;;;;;;;4985993;28;20557;-77
2021/05/11 00:38:58;;;;;;;1.70;0.83;;;;;;;;;;5002124;28;20025;-78
2021/05/11 00:41:23;;;;;;;1.23;0.90;;;;;;;;;;5010420;28;20026;-77
2021/05/11 00:43:49;;;;;;;1.30;1.00;;;;;;;;;;5018298;28;20022;-78
2021/05/11 00:46:15;;;;;;;2.60;0.87;;;;;;;;;;4967550;28;20183;-77
2021/05/11 00:48:41;;;;;;;1.05;0.80;;;;;;;;;;4966472;28;20036;-77
2021/05/11 00:51:06;;;;;;;1.33;0.80;;;;;;;;;;4970852;28;20119;-77
2021/05/11 00:53:32;;;;;;;1.63;1.07;;;;;;;;;;4984826;28;20041;-78
2021/05/11 00:55:57;;;;;;;2.10;0.93;;;;;;;;;;4966252;28;20064;-78
2021/05/11 00:58:23;;;;;;;1.33;0.80;;;;;;;;;;4966441;28;20085;-76
2021/05/11 01:00:49;;;;;;;2.50;1.00;;;;;;;;;;4984862;28;20028;-77
2021/05/11 01:03:14;;;;;;;1.77;0.90;;;;;;;;;;4979900;28;20315;-77
2021/05/11 01:05:39;;;;;;;1.70;0.90;;;;;;;;;;5000772;28;20065;-77
2021/05/11 01:08:05;;;;;;;0.90;0.70;;;;;;;;;;4969628;28;20076;-77
2021/05/11 01:10:31;;;;;;;1.95;0.80;;;;;;;;;;4966537;28;20485;-77
2021/05/11 01:12:56;;;;;;;1.57;1.00;;;;;;;;;;5001257;28;20036;-78
2021/05/11 01:15:21;;;;;;;1.73;0.90;;;;;;;;;;5001741;28;20044;-78
2021/05/11 01:17:58;;;;;;;1.33;0.77;;;;;;;;;;4984740;28;20046;-77
2021/05/11 01:20:46;;;;;;;1.67;0.80;;;;;;;;;;4968852;28;20041;-78
2021/05/11 01:23:50;;;;;;;1.92;0.90;;;;;;;;;;4971332;28;20025;-78
2021/05/11 01:26:21;;;;;;;1.05;0.82;;;;;;;;;;5006418;28;20037;-78
2021/05/11 01:28:56;;;;;;;1.92;0.98;;;;;;;;;;5002571;28;20026;-78
2021/05/11 01:47:44;;;;;;;1.15;0.80;;;;;;;;;;5011863;28;20440;-77
2021/05/11 01:50:23;;;;;;;1.10;0.80;;;;;;;;;;4988310;28;20025;-78
2021/05/11 02:22:50;;;;;;;1.65;0.90;;;;;;;;;;5000256;28;20088;-77
2021/05/11 02:25:15;;;;;;;1.45;0.77;;;;;;;;;;4982486;28;20075;-77
2021/05/11 02:27:42;;;;;;;0.70;0.53;;;;;;;;;;4994882;28;20104;-77
2021/05/11 02:30:08;;;;;;;0.90;0.80;;;;;;;;;;5016408;28;20025;-77
2021/05/11 02:32:37;;;;;;;1.42;0.90;;;;;;;;;;5000075;28;20029;-77
2021/05/11 02:35:03;;;;;;;1.60;0.90;;;;;;;;;;4984212;28;20554;-78
2021/05/11 02:37:28;;;;;;;1.20;0.87;;;;;;;;;;4987093;28;20042;-78
2021/05/11 02:39:53;;;;;;;1.17;0.70;;;;;;;;;;4980806;28;20070;-78
2021/05/11 02:42:19;;;;;;;1.00;0.70;;;;;;;;;;4964156;28;20072;-78
2021/05/11 02:44:46;;;;;;;1.30;0.80;;;;;;;;;;4980579;28;20108;-78
2021/05/11 02:47:12;;;;;;;1.40;0.80;;;;;;;;;;4974537;28;20092;-78
2021/05/11 02:49:41;;;;;;;1.27;0.80;;;;;;;;;;4983272;28;20029;-78
2021/05/11 02:52:06;;;;;;;1.50;0.85;;;;;;;;;;4971425;28;20197;-77
2021/05/11 02:54:31;;;;;;;1.50;0.70;;;;;;;;;;4983468;28;20115;-78
2021/05/11 02:56:56;;;;;;;1.07;0.77;;;;;;;;;;4975403;28;20068;-77
2021/05/11 02:59:22;;;;;;;2.13;1.00;;;;;;;;;;4980195;28;20026;-77
2021/05/11 03:01:47;;;;;;;0.97;0.80;;;;;;;;;;4964037;28;20060;-77
2021/05/11 03:04:12;;;;;;;1.43;0.80;;;;;;;;;;4966555;28;20117;-78
2021/05/11 03:06:38;;;;;;;1.27;0.90;;;;;;;;;;4991364;28;20062;-78
2021/05/11 03:09:03;;;;;;;1.03;0.70;;;;;;;;;;4982903;28;20060;-78
2021/05/11 03:11:29;;;;;;;1.20;0.90;;;;;;;;;;4983275;28;20358;-78
2021/05/11 03:13:54;;;;;;;0.97;0.80;;;;;;;;;;4983457;28;20080;-78
2021/05/11 03:16:19;;;;;;;0.80;0.70;;;;;;;;;;4998214;28;20113;-77
2021/05/11 03:18:45;;;;;;;1.43;0.70;;;;;;;;;;4992195;28;20060;-78
2021/05/11 03:21:10;;;;;;;1.63;0.80;;;;;;;;;;4979964;28;20052;-77
2021/05/11 03:23:36;;;;;;;1.40;0.80;;;;;;;;;;4979633;28;20032;-77
2021/05/11 03:26:01;;;;;;;1.30;0.80;;;;;;;;;;4964907;28;20493;-78
2021/05/11 03:28:26;;;;;;;1.30;0.80;;;;;;;;;;4963779;28;20509;-78
2021/05/11 03:30:52;;;;;;;1.50;0.80;;;;;;;;;;4979596;28;20037;-78
2021/05/11 03:33:17;;;;;;;1.17;0.63;;;;;;;;;;4974491;28;20033;-78
2021/05/11 03:35:42;;;;;;;1.00;0.70;;;;;;;;;;4994438;28;20176;-77
2021/05/11 03:38:09;;;;;;;0.90;0.70;;;;;;;;;;4965764;28;20033;-78
2021/05/11 03:40:35;;;;;;;1.00;0.70;;;;;;;;;;4968305;28;20118;-76
2021/05/11 03:43:25;;;;;;;1.37;0.90;;;;;;;;;;4986480;28;20115;-77
2021/05/11 03:45:51;;;;;;;0.80;0.70;;;;;;;;;;5017030;28;20050;-78
2021/05/11 03:48:17;;;;;;;0.68;0.60;;;;;;;;;;4972422;28;20033;-77
2021/05/11 03:50:42;;;;;;;0.77;0.60;;;;;;;;;;5006623;28;20495;-77
2021/05/11 03:53:07;;;;;;;1.07;0.70;;;;;;;;;;4994887;28;20448;-77
2021/05/11 03:55:33;;;;;;;1.30;0.63;;;;;;;;;;4983779;28;20044;-78
2021/05/11 03:57:58;;;;;;;0.87;0.60;;;;;;;;;;4968722;28;20068;-77
2021/05/11 04:00:23;;;;;;;1.20;0.60;;;;;;;;;;4996197;28;20053;-77
2021/05/11 04:02:49;;;;;;;1.20;0.70;;;;;;;;;;4995296;28;20113;-77
2021/05/11 04:05:15;;;;;;;1.70;0.67;;;;;;;;;;4985791;28;20492;-77
2021/05/11 04:07:42;;;;;;;1.23;0.70;;;;;;;;;;5003180;28;20083;-78
2021/05/11 04:18:14;;;;;;;1.35;0.73;;;;;;;;;;4996938;28;20033;-78
2021/05/11 04:23:55;;;;;;;1.27;0.70;;;;;;;;;;5052140;28;20072;-78
2021/05/11 04:26:40;;;;;;;1.38;0.80;;;;;;;;;;5048444;28;20488;-78
2021/05/11 04:29:06;;;;;;;1.23;0.67;;;;;;;;;;5048906;28;20029;-79
2021/05/11 04:31:34;;;;;;;0.90;0.60;;;;;;;;;;5028264;28;20025;-78
2021/05/11 04:33:59;;;;;;;1.15;0.80;;;;;;;;;;5047900;28;20056;-78
2021/05/11 04:36:24;;;;;;;0.90;0.70;;;;;;;;;;5031053;28;20037;-78
2021/05/11 04:38:50;;;;;;;1.23;0.70;;;;;;;;;;5049230;28;20033;-78
2021/05/11 04:41:15;;;;;;;1.37;0.77;;;;;;;;;;5032955;28;20092;-78
2021/05/11 04:43:42;;;;;;;1.40;0.77;;;;;;;;;;5031570;28;20024;-78
2021/05/11 04:48:33;;;;;;;1.00;0.60;;;;;;;;;;5021731;28;20033;-79
2021/05/11 04:50:58;;;;;;;1.10;0.63;;;;;;;;;;5027725;28;20117;-78
2021/05/11 04:53:23;;;;;;;0.90;0.50;;;;;;;;;;5029517;28;20030;-78
2021/05/11 04:55:49;;;;;;;1.03;0.70;;;;;;;;;;5030189;28;20037;-80
2021/05/11 04:58:14;;;;;;;0.73;0.53;;;;;;;;;;5031147;28;20079;-80
2021/05/11 05:00:40;;;;;;;1.73;0.90;;;;;;;;;;5030614;28;20026;-80
2021/05/11 05:03:08;;;;;;;1.93;0.80;;;;;;;;;;5026733;28;20049;-80
2021/05/11 05:05:33;;;;;;;0.90;0.65;;;;;;;;;;5034466;28;20121;-80
2021/05/11 05:07:58;;;;;;;0.80;0.60;;;;;;;;;;5052144;28;20061;-80
2021/05/11 05:10:24;;;;;;;1.17;0.70;;;;;;;;;;5047419;28;20053;-80
2021/05/11 05:12:49;;;;;;;1.10;0.70;;;;;;;;;;5056268;28;20028;-80
2021/05/11 05:15:15;;;;;;;0.80;0.60;;;;;;;;;;5068956;28;20093;-80
2021/05/11 05:17:41;;;;;;;1.13;0.73;;;;;;;;;;5034319;28;20025;-80
2021/05/11 05:20:06;;;;;;;0.90;0.50;;;;;;;;;;5034173;28;20094;-80
2021/05/11 05:22:32;;;;;;;1.38;0.60;;;;;;;;;;5050747;28;20025;-80
2021/05/11 05:25:00;;;;;;;1.00;0.60;;;;;;;;;;5034628;28;20029;-80
2021/05/11 05:28:13;;;;;;;1.15;0.70;;;;;;;;;;5034901;28;20030;-80
2021/05/11 05:30:12;;;;;;;0.93;0.60;;;;;;;;;;5012047;28;20101;-80
2021/05/11 05:32:37;;;;;;;1.35;0.70;;;;;;;;;;5015093;28;20033;-80
2021/05/11 05:35:03;;;;;;;1.47;0.80;;;;;;;;;;5015575;28;20034;-80
2021/05/11 05:37:28;;;;;;;1.30;0.70;;;;;;;;;;4998334;28;20032;-80
2021/05/11 05:39:57;;;;;;;0.80;0.60;;;;;;;;;;5014829;28;20100;-80
2021/05/11 05:42:22;;;;;;;1.08;0.60;;;;;;;;;;5014675;28;20025;-80
2021/05/11 05:44:48;;;;;;;1.13;0.70;;;;;;;;;;5029712;28;20037;-80
2021/05/11 05:47:13;;;;;;;1.63;0.60;;;;;;;;;;5012469;28;20033;-80
2021/05/11 05:49:45;;;;;;;1.73;0.53;;;;;;;;;;5013407;28;20025;-80
2021/05/11 05:52:16;;;;;;;1.20;0.70;;;;;;;;;;5030435;28;20033;-80
2021/05/11 05:54:41;;;;;;;1.40;0.63;;;;;;;;;;5014373;28;20018;-80
2021/05/11 05:57:07;;;;;;;1.27;0.80;;;;;;;;;;5029605;28;20417;-80
2021/05/11 05:59:34;;;;;;;0.57;0.57;;;;;;;;;;5029050;28;20033;-80
2021/05/11 06:02:00;;;;;;;1.52;0.60;;;;;;;;;;5028939;28;20028;-80
2021/05/11 06:04:25;;;;;;;1.50;0.63;;;;;;;;;;5019203;28;20040;-80
2021/05/11 06:06:50;;;;;;;1.53;0.60;;;;;;;;;;5069005;28;20028;-80
2021/05/11 06:09:17;;;;;;;0.70;0.50;;;;;;;;;;5069655;28;20025;-81
2021/05/11 06:11:46;;;;;;;;;;;;;;;;;;5069192;28;20029;-79
2021/05/11 06:17:17;;;;;;;1.60;0.68;;;;;;;;;;5001869;28;20103;-81
2021/05/11 06:19:46;;;;;;;0.82;0.60;;;;;;;;;;5070151;28;20025;-80
2021/05/11 06:22:12;;;;;;;0.98;0.55;;;;;;;;;;5060588;28;20032;-81
2021/05/11 06:24:38;;;;;;;1.13;0.67;;;;;;;;;;5033134;28;20025;-80
2021/05/11 06:27:04;;;;;;;1.20;0.70;;;;;;;;;;5033262;28;20028;-80
2021/05/11 06:29:32;;;;;;;1.42;0.80;;;;;;;;;;5017208;28;20028;-80
2021/05/11 06:31:57;;;;;;;1.73;0.70;;;;;;;;;;5033821;28;20026;-80
2021/05/11 06:34:22;;;;;;;0.77;0.50;;;;;;;;;;5042135;28;20032;-80
2021/05/11 06:36:48;;;;;;;1.73;0.60;;;;;;;;;;5052222;28;20021;-81
2021/05/11 06:39:15;;;;;;;1.93;0.70;;;;;;;;;;5069289;28;20032;-80
2021/05/11 06:41:43;;;;;;;1.02;0.60;;;;;;;;;;5052371;28;20017;-80
2021/05/11 06:44:15;;;;;;;1.27;0.70;;;;;;;;;;5052801;28;20025;-79
2021/05/11 06:54:34;;;;;;;0.70;0.50;;;;;;;;;;5068775;28;20059;-80
2021/05/11 06:57:00;;;;;;;0.97;0.70;;;;;;;;;;5052274;28;20028;-80
2021/05/11 06:59:26;;;;;;;1.30;0.70;;;;;;;;;;5069257;28;20085;-80
2021/05/11 07:01:52;;;;;;;0.75;0.50;;;;;;;;;;5069134;28;20043;-80
2021/05/11 07:04:17;;;;;;;1.33;0.60;;;;;;;;;;5069364;28;20009;-80
2021/05/11 07:06:42;;;;;;;0.87;0.47;;;;;;;;;;5070078;28;20053;-80
2021/05/11 07:09:10;;;;;;;1.10;0.60;;;;;;;;;;5051517;28;20027;-80
2021/05/11 07:14:01;;;;;;;0.80;0.50;;;;;;;;;;5048256;28;20029;-80
2021/05/11 07:16:26;;;;;;;0.80;0.60;;;;;;;;;;5032144;28;20036;-80
2021/05/11 07:18:52;;;;;;;1.07;0.60;;;;;;;;;;5016040;28;20068;-80
2021/05/11 07:21:17;;;;;;;1.23;0.60;;;;;;;;;;5047717;28;20034;-80
2021/05/11 07:23:42;;;;;;;0.77;0.50;;;;;;;;;;5031729;28;20025;-80
2021/05/11 07:26:23;;;;;;;0.90;0.50;;;;;;;;;;5033362;28;20038;-80
2021/05/11 07:31:26;;;;;;;;;;;;;;;;;;5050861;28;20034;-80
2021/05/11 07:33:53;;;;;;;0.87;0.50;;;;;;;;;;5049521;28;19913;-80
2021/05/11 07:36:19;;;;;;;0.70;0.52;;;;;;;;;;5033210;28;20279;-80
2021/05/11 07:38:44;;;;;;;0.90;0.50;;;;;;;;;;5049991;28;20033;-80
2021/05/11 07:41:12;;;;;;;1.23;0.50;;;;;;;;;;5034630;28;20017;-80
2021/05/11 07:43:38;;;;;;;1.08;0.50;;;;;;;;;;5032854;28;20021;-80
2021/05/11 07:46:31;;;;;;;0.80;0.50;;;;;;;;;;5016601;28;20025;-80
2021/05/11 08:15:29;;;;;;;1.13;0.63;;;;;;;;;;5046507;28;20044;-79
2021/05/11 08:18:07;;;;;;;0.80;0.50;;;;;;;;;;5039460;28;20054;-80
2021/05/11 08:28:38;;;;;;;1.35;0.50;;;;;;;;;;5021111;28;20037;-80
2021/05/11 08:31:03;;;;;;;0.73;0.40;;;;;;;;;;5030590;28;20034;-80
2021/05/11 08:33:28;;;;;;;0.90;0.60;;;;;;;;;;5013283;28;20022;-80
2021/05/11 08:35:54;;;;;;;0.93;0.47;;;;;;;;;;5039835;28;20037;-79
2021/05/11 08:38:19;;;;;;;0.80;0.60;;;;;;;;;;5039742;28;20018;-79
2021/05/11 08:40:45;;;;;;;0.87;0.57;;;;;;;;;;5049590;28;20101;-80
2021/05/11 08:43:31;;;;;;;0.80;0.50;;;;;;;;;;5034390;28;20021;-80
2021/05/11 08:46:01;;;;;;;0.52;0.45;;;;;;;;;;5050624;28;20047;-80
2021/05/11 08:48:27;;;;;;;0.95;0.50;;;;;;;;;;5048595;28;20029;-80
2021/05/11 08:51:00;;;;;;;1.20;0.63;;;;;;;;;;5025739;28;20041;-80
2021/05/11 09:04:51;;;;;;;1.20;0.47;;;;;;;;;;5043230;28;20064;-80
2021/05/11 09:08:16;;;;;;;0.60;0.40;;;;;;;;;;5050824;28;20028;-80
2021/05/11 09:29:12;;;;;;;0.90;0.60;;;;;;;;;;5048723;28;20105;-80
2021/05/11 09:34:15;;;;;;;0.80;0.40;;;;;;;;;;4997460;28;20056;-80
2021/05/11 09:45:37;;;;;;;1.13;0.52;;;;;;;;;;5017184;28;20036;-80
2021/05/11 09:56:27;;;;;;;1.20;0.50;;;;;;;;;;5048777;28;20056;-80
2021/05/11 10:48:35;;;;;;;0.80;0.38;;;;;;;;;;5047527;28;20072;-81
2021/05/11 10:51:18;;;;;;;1.20;0.57;;;;;;;;;;5048147;28;20017;-82
2021/05/11 10:53:48;;;;;;;0.45;0.40;;;;;;;;;;5027111;28;20089;-82
2021/05/11 11:02:03;;;;;;;0.40;0.30;;;;;;;;;;5045268;28;20048;-82
2021/05/11 11:04:32;;;;;;;0.93;0.45;;;;;;;;;;5026135;28;20029;-81
2021/05/11 11:06:58;;;;;;;2.25;0.40;;;;;;;;;;5010630;28;20673;-82
2021/05/11 11:09:33;;;;;;;0.60;0.30;;;;;;;;;;5028358;28;20035;-82
2021/05/11 11:11:59;;;;;;;0.60;0.40;;;;;;;;;;5023932;28;20025;-82
2021/05/11 11:14:55;;;;;;;0.80;0.40;;;;;;;;;;5023191;28;20025;-80
2021/05/11 11:18:01;;;;;;;0.57;0.45;;;;;;;;;;5023952;28;20100;-79
2021/05/11 11:20:32;;;;;;;0.85;0.50;;;;;;;;;;5045504;28;20041;-79
2021/05/11 11:26:16;;;;;;;0.77;0.50;;;;;;;;;;5023626;28;20052;-80
2021/05/11 11:28:41;;;;;;;0.98;0.50;;;;;;;;;;5028654;28;20459;-80
2021/05/11 11:31:27;;;;;;;0.73;0.47;;;;;;;;;;5030723;28;20030;-80
2021/05/11 11:33:53;;;;;;;0.60;0.47;;;;;;;;;;5040539;28;20013;-81
2021/05/11 11:36:31;;;;;;;1.30;0.50;;;;;;;;;;5024174;28;20030;-81
2021/05/11 11:38:58;;;;;;;0.50;0.30;;;;;;;;;;5004447;28;20022;-81
2021/05/11 11:41:24;;;;;;;0.63;0.43;;;;;;;;;;4999148;28;20086;-81
2021/05/11 11:43:50;;;;;;;0.85;0.50;;;;;;;;;;5006458;28;20048;-81
2021/05/11 11:46:27;;;;;;;0.90;0.40;;;;;;;;;;5004935;28;20029;-81
2021/05/11 11:48:57;;;;;;;0.73;0.43;;;;;;;;;;5037282;28;20021;-81
2021/05/11 11:51:26;;;;;;;0.65;0.40;;;;;;;;;;5041378;28;20022;-80
2021/05/11 11:54:08;;;;;;;0.45;0.35;;;;;;;;;;5043018;28;20028;-80
2021/05/11 11:59:06;;;;;;;0.93;0.40;;;;;;;;;;5028324;28;20026;-81
2021/05/11 12:01:31;;;;;;;1.13;0.55;;;;;;;;;;5025668;28;20085;-81
2021/05/11 12:03:57;;;;;;;0.50;0.40;;;;;;;;;;5001396;28;20037;-81
2021/05/11 12:06:30;;;;;;;0.50;0.40;;;;;;;;;;5018002;28;20036;-81
2021/05/11 12:08:55;;;;;;;0.73;0.35;;;;;;;;;;5008363;28;20025;-80
2021/05/11 12:11:21;;;;;;;0.40;0.30;;;;;;;;;;5066966;28;20016;-79
2021/05/11 12:13:49;;;;;;;0.40;0.40;;;;;;;;;;5036955;28;20029;-81
2021/05/11 12:16:17;;;;;;;0.73;0.40;;;;;;;;;;5034451;28;20033;-81
2021/05/11 12:21:27;;;;;;;0.70;0.45;;;;;;;;;;5053545;28;20064;-81
2021/05/11 12:24:03;;;;;;;0.43;0.30;;;;;;;;;;5036112;28;20025;-81
2021/05/11 12:26:28;;;;;;;0.63;0.43;;;;;;;;;;5033106;28;20045;-81
2021/05/11 12:29:07;;;;;;;0.63;0.40;;;;;;;;;;5010004;28;20026;-81
2021/05/11 12:31:49;;;;;;;0.57;0.50;;;;;;;;;;5019409;28;20152;-81
2021/05/11 12:34:21;;;;;;;0.50;0.40;;;;;;;;;;5036385;28;20032;-81
2021/05/11 12:36:56;;;;;;;0.35;0.30;;;;;;;;;;5035279;28;20032;-81
2021/05/11 12:42:18;;;;;;;0.75;0.50;;;;;;;;;;5032523;28;20033;-80
2021/05/11 12:44:44;;;;;;;0.55;0.40;;;;;;;;;;5015966;28;20090;-81
2021/05/11 12:47:09;;;;;;;0.40;0.37;;;;;;;;;;5016288;28;20086;-80
2021/05/11 12:49:35;;;;;;;0.50;0.40;;;;;;;;;;5000375;28;20327;-80
2021/05/11 12:52:02;;;;;;;0.63;0.40;;;;;;;;;;5005097;28;20035;-80
2021/05/11 12:54:31;;;;;;;0.75;0.40;;;;;;;;;;5051438;28;20033;-81
2021/05/11 12:57:06;;;;;;;0.50;0.40;;;;;;;;;;5040119;28;20034;-80
2021/05/11 12:59:42;;;;;;;0.35;0.35;;;;;;;;;;5017441;28;20097;-83
2021/05/11 13:23:06;;;;;;;0.50;0.32;;;;;;;;;;5071989;28;20056;-80
2021/05/11 13:25:36;;;;;;;0.55;0.40;;;;;;;;;;5072487;28;20047;-81
2021/05/11 13:30:35;;;;;;;0.97;0.40;;;;;;;;;;5054739;28;20044;-80
2021/05/11 13:35:27;;;;;;;0.53;0.33;;;;;;;;;;5070985;28;20029;-80
2021/05/11 13:37:52;;;;;;;0.40;0.30;;;;;;;;;;5055713;28;20171;-80
2021/05/11 13:40:18;;;;;;;0.50;0.30;;;;;;;;;;5055144;28;20028;-80
2021/05/11 13:42:43;;;;;;;1.30;0.60;;;;;;;;;;5072035;28;20025;-80
2021/05/11 13:45:09;;;;;;;0.57;0.30;;;;;;;;;;5071605;28;20029;-80
2021/05/11 13:47:34;;;;;;;1.77;0.30;;;;;;;;;;5071858;28;20021;-81
2021/05/11 13:50:02;;;;;;;1.00;0.33;;;;;;;;;;5038399;28;20119;-80
2021/05/11 13:52:28;;;;;;;1.63;0.50;;;;;;;;;;5038706;28;20090;-81
2021/05/11 13:54:58;;;;;;;0.60;0.40;;;;;;;;;;5071771;28;20025;-80
2021/05/11 14:02:49;;;;;;;0.50;0.30;;;;;;;;;;5071481;28;20028;-81
2021/05/11 14:05:15;;;;;;;0.63;0.35;;;;;;;;;;5071180;28;20021;-80
2021/05/11 14:07:40;;;;;;;0.53;0.40;;;;;;;;;;5071047;28;20096;-80
2021/05/11 14:10:06;;;;;;;0.80;0.40;;;;;;;;;;5072071;28;20025;-81
2021/05/11 14:12:32;;;;;;;0.55;0.40;;;;;;;;;;5054058;28;20055;-80
2021/05/11 14:14:57;;;;;;;0.63;0.37;;;;;;;;;;5053806;28;20032;-80
2021/05/11 14:17:22;;;;;;;0.50;0.40;;;;;;;;;;5047891;28;20033;-80
2021/05/11 14:19:50;;;;;;;0.60;0.40;;;;;;;;;;5042449;28;20029;-80
2021/05/11 14:22:15;;;;;;;0.60;0.50;;;;;;;;;;5035243;28;20020;-81
2021/05/11 14:24:40;;;;;;;0.30;0.30;;;;;;;;;;5038844;28;20044;-81
2021/05/11 14:27:06;;;;;;;0.70;0.40;;;;;;;;;;5044018;28;20033;-81
2021/05/11 14:29:31;;;;;;;0.30;0.30;;;;;;;;;;5033718;28;20079;-81
2021/05/11 14:31:57;;;;;;;0.80;0.33;;;;;;;;;;5034116;28;20079;-81
2021/05/11 14:34:24;;;;;;;0.33;0.23;;;;;;;;;;5017376;28;20032;-81
2021/05/11 14:36:49;;;;;;;0.43;0.40;;;;;;;;;;5014495;28;20022;-81
2021/05/11 14:39:15;;;;;;;1.20;0.50;;;;;;;;;;5022105;28;20048;-81
2021/05/11 14:41:40;;;;;;;0.60;0.40;;;;;;;;;;5023248;28;20026;-81
2021/05/11 14:44:06;;;;;;;0.50;0.30;;;;;;;;;;5032880;28;20058;-81
2021/05/11 14:46:31;;;;;;;0.50;0.30;;;;;;;;;;5024254;28;20022;-81
2021/05/11 14:48:57;;;;;;;0.80;0.40;;;;;;;;;;5045582;28;20032;-81
2021/05/11 14:51:22;;;;;;;0.63;0.40;;;;;;;;;;5029420;28;20029;-81
2021/05/11 14:53:48;;;;;;;0.80;0.30;;;;;;;;;;5006176;28;20092;-81
2021/05/11 14:56:13;;;;;;;0.30;0.30;;;;;;;;;;5014074;28;20029;-81
2021/05/11 14:58:39;;;;;;;0.77;0.40;;;;;;;;;;5009272;28;20033;-81
2021/05/11 15:01:04;;;;;;;1.10;0.40;;;;;;;;;;5016186;28;20031;-81
2021/05/11 15:03:30;;;;;;;0.63;0.40;;;;;;;;;;5016557;28;20026;-81
2021/05/11 15:05:55;;;;;;;0.40;0.33;;;;;;;;;;5044382;28;20033;-81
2021/05/11 15:08:20;;;;;;;0.83;0.43;;;;;;;;;;5034040;28;20033;-81
2021/05/11 15:10:46;;;;;;;0.53;0.40;;;;;;;;;;5043350;28;20026;-81
2021/05/11 15:13:12;;;;;;;0.53;0.30;;;;;;;;;;4998262;28;20033;-82
2021/05/11 15:15:39;;;;;;;0.70;0.40;;;;;;;;;;5009525;28;20056;-82
2021/05/11 15:18:05;;;;;;;1.38;0.50;;;;;;;;;;5025687;28;20036;-81
2021/05/11 15:20:32;;;;;;;0.52;0.43;;;;;;;;;;5040115;28;20036;-82
2021/05/11 15:22:57;;;;;;;0.82;0.40;;;;;;;;;;5004764;28;20423;-82
2021/05/11 15:25:23;;;;;;;0.60;0.30;;;;;;;;;;4988594;28;20029;-82
2021/05/11 15:27:53;;;;;;;1.00;0.50;;;;;;;;;;5007731;28;20049;-80
2021/05/11 15:30:18;;;;;;;1.25;0.40;;;;;;;;;;4994604;28;20108;-81
2021/05/11 15:32:45;;;;;;;0.67;0.40;;;;;;;;;;5028655;28;20433;-80
2021/05/11 15:35:14;;;;;;;0.68;0.40;;;;;;;;;;5051325;28;20415;-81
2021/05/11 15:37:40;;;;;;;0.68;0.40;;;;;;;;;;5018581;28;20029;-80
2021/05/11 15:40:10;;;;;;;0.73;0.40;;;;;;;;;;5034748;28;20114;-81
2021/05/11 15:42:36;;;;;;;1.02;0.50;;;;;;;;;;5020397;28;20034;-80
2021/05/11 15:45:02;;;;;;;1.13;0.57;;;;;;;;;;4982779;28;20053;-80
2021/05/11 15:47:27;;;;;;;1.60;0.47;;;;;;;;;;5015499;28;20034;-81
2021/05/11 15:49:53;;;;;;;0.67;0.40;;;;;;;;;;5012550;28;20073;-81
2021/05/11 15:52:18;;;;;;;0.70;0.50;;;;;;;;;;5029732;28;20056;-80
2021/05/11 15:54:43;;;;;;;0.60;0.40;;;;;;;;;;5033612;28;20071;-81
2021/05/11 15:57:09;;;;;;;1.40;0.60;;;;;;;;;;5032848;28;20089;-81
2021/05/11 15:59:34;;;;;;;0.83;0.50;;;;;;;;;;5023308;28;20049;-81
2021/05/11 16:02:00;;;;;;;0.90;0.43;;;;;;;;;;5021063;28;20083;-82
2021/05/11 16:04:25;;;;;;;0.93;0.50;;;;;;;;;;5024587;28;20025;-81
2021/05/11 16:06:51;;;;;;;0.67;0.40;;;;;;;;;;5063952;28;20500;-81
2021/05/11 16:09:16;;;;;;;0.67;0.50;;;;;;;;;;5031663;28;20093;-82
2021/05/11 16:11:41;;;;;;;0.97;0.60;;;;;;;;;;5027814;28;20044;-82
2021/05/11 16:14:07;;;;;;;1.27;0.50;;;;;;;;;;5023118;28;20029;-81
2021/05/11 16:16:32;;;;;;;1.67;0.50;;;;;;;;;;4996925;28;20049;-81
2021/05/11 16:18:58;;;;;;;1.70;0.50;;;;;;;;;;5015019;28;20030;-81
2021/05/11 16:21:24;;;;;;;2.80;0.50;;;;;;;;;;5022947;28;20026;-82
2021/05/11 16:23:51;;;;;;;1.10;0.40;;;;;;;;;;5027047;28;20481;-83
2021/05/11 16:26:16;;;;;;;0.88;0.55;;;;;;;;;;5012141;28;20033;-80
2021/05/11 16:28:42;;;;;;;1.20;0.50;;;;;;;;;;5029458;28;20059;-83
2021/05/11 16:31:07;;;;;;;0.50;0.40;;;;;;;;;;5010506;28;20052;-81
2021/05/11 16:33:33;;;;;;;1.43;0.43;;;;;;;;;;5024659;28;20037;-80
2021/05/11 16:35:58;;;;;;;1.07;0.50;;;;;;;;;;5004245;28;20401;-80
2021/05/11 16:38:23;;;;;;;1.53;0.60;;;;;;;;;;4995026;28;20061;-79
2021/05/11 16:40:49;;;;;;;0.90;0.60;;;;;;;;;;5006612;28;20026;-80
2021/05/11 16:43:15;;;;;;;1.73;0.57;;;;;;;;;;5006702;28;20066;-79
2021/05/11 16:45:40;;;;;;;1.70;0.70;;;;;;;;;;5022424;28;20044;-80
2021/05/11 16:48:06;;;;;;;0.90;0.40;;;;;;;;;;4996059;28;20526;-78
2021/05/11 16:50:33;;;;;;;2.78;0.88;;;;;;;;;;5024519;28;20037;-79
2021/05/11 16:53:00;;;;;;;0.90;0.55;;;;;;;;;;4993282;28;20030;-78
2021/05/11 16:55:25;;;;;;;1.63;0.70;;;;;;;;;;5025623;28;20026;-78
2021/05/11 16:57:51;;;;;;;1.83;0.67;;;;;;;;;;5040249;28;20025;-78
2021/05/11 17:00:17;;;;;;;1.40;0.80;;;;;;;;;;5025963;28;20456;-78
2021/05/11 17:02:42;;;;;;;;;;;;;;;;;;5024312;28;20025;-78
2021/05/11 17:05:10;;;;;;;3.50;0.60;;;;;;;;;;5044583;28;19913;-80
2021/05/11 17:07:35;;;;;;;3.28;0.70;;;;;;;;;;5038010;28;20038;-77
2021/05/11 17:10:01;;;;;;;1.33;0.60;;;;;;;;;;5060416;28;20033;-78
2021/05/11 17:12:26;;;;;;;2.20;0.70;;;;;;;;;;5054252;28;20060;-79
2021/05/11 17:14:51;;;;;;;1.00;0.60;;;;;;;;;;5044836;28;20047;-77
2021/05/11 17:17:17;;;;;;;1.30;0.63;;;;;;;;;;5044400;28;20029;-78
2021/05/11 17:19:42;;;;;;;1.23;0.60;;;;;;;;;;5025855;28;20090;-80
2021/05/11 17:22:07;;;;;;;1.47;0.70;;;;;;;;;;5040194;28;20408;-80
2021/05/11 17:24:33;;;;;;;1.20;0.70;;;;;;;;;;5030881;28;20039;-79
2021/05/11 17:26:58;;;;;;;1.57;0.70;;;;;;;;;;5025018;28;20056;-79
2021/05/11 17:29:26;;;;;;;2.37;0.70;;;;;;;;;;5029578;28;20033;-81
2021/05/11 17:31:52;;;;;;;1.30;0.70;;;;;;;;;;5048489;28;20033;-81
2021/05/11 17:34:17;;;;;;;1.63;0.63;;;;;;;;;;5029450;28;20035;-79
2021/05/11 17:36:43;;;;;;;0.90;0.50;;;;;;;;;;5046508;28;20029;-78
2021/05/11 17:39:08;;;;;;;1.13;0.70;;;;;;;;;;5040128;28;20034;-80
2021/05/11 17:41:34;;;;;;;1.10;0.63;;;;;;;;;;5043291;28;20033;-80
2021/05/11 17:43:59;;;;;;;1.10;0.60;;;;;;;;;;5044060;28;20022;-79
2021/05/11 17:46:25;;;;;;;0.90;0.60;;;;;;;;;;5025390;28;20396;-78
2021/05/11 17:48:50;;;;;;;1.40;0.73;;;;;;;;;;5024712;28;20159;-79
2021/05/11 17:51:17;;;;;;;2.40;0.60;;;;;;;;;;5024401;28;20057;-78
2021/05/11 17:53:43;;;;;;;1.90;0.70;;;;;;;;;;5049910;28;20029;-78
2021/05/11 17:56:09;;;;;;;1.05;0.60;;;;;;;;;;5040882;28;20106;-79
2021/05/11 17:58:34;;;;;;;2.40;0.77;;;;;;;;;;5023882;28;20080;-78
2021/05/11 18:01:02;;;;;;;1.43;0.70;;;;;;;;;;5026779;28;20034;-82
2021/05/11 18:03:29;;;;;;;1.60;0.73;;;;;;;;;;5008807;28;20018;-79
2021/05/11 18:05:54;;;;;;;;;;;;;;;;;;4979747;28;20041;-80
2021/05/11 18:08:24;;;;;;;1.48;0.73;;;;;;;;;;5012047;28;19936;-80
2021/05/11 18:10:49;;;;;;;0.93;0.50;;;;;;;;;;4979172;28;20036;-79
2021/05/11 18:13:15;;;;;;;1.60;0.70;;;;;;;;;;4995002;28;20073;-79
2021/05/11 18:15:40;;;;;;;1.73;0.77;;;;;;;;;;4988120;28;20384;-78
2021/05/11 18:18:05;;;;;;;3.40;0.90;;;;;;;;;;4997835;28;20021;-78
2021/05/11 18:20:31;;;;;;;1.93;0.80;;;;;;;;;;5016172;28;20083;-80
2021/05/11 18:22:56;;;;;;;2.53;0.80;;;;;;;;;;4985977;28;20069;-81
2021/05/11 18:25:21;;;;;;;1.93;0.73;;;;;;;;;;5000205;28;20068;-80
2021/05/11 18:27:47;;;;;;;1.57;0.77;;;;;;;;;;4985454;28;20083;-79
2021/05/11 18:30:17;;;;;;;2.10;0.83;;;;;;;;;;4984101;28;20072;-79
2021/05/11 18:32:43;;;;;;;1.80;0.77;;;;;;;;;;4965239;28;20245;-79
2021/05/11 18:35:09;;;;;;;2.65;0.80;;;;;;;;;;4990154;28;20029;-79
2021/05/11 18:37:39;;;;;;;1.40;0.80;;;;;;;;;;5022575;28;20386;-81
2021/05/11 18:40:05;;;;;;;1.33;0.70;;;;;;;;;;4997258;28;20021;-78
2021/05/11 18:42:32;;;;;;;1.30;0.70;;;;;;;;;;5012719;28;20112;-78
2021/05/11 18:44:57;;;;;;;1.70;0.80;;;;;;;;;;4996532;28;20397;-79
2021/05/11 18:47:23;;;;;;;2.00;0.77;;;;;;;;;;5013127;28;20030;-79
2021/05/11 18:49:48;;;;;;;2.90;0.83;;;;;;;;;;4977784;28;20852;-78
2021/05/11 18:52:15;;;;;;;1.33;0.70;;;;;;;;;;4980579;28;20475;-78
2021/05/11 18:54:43;;;;;;;1.33;0.70;;;;;;;;;;4981684;28;20120;-78
2021/05/11 18:57:08;;;;;;;1.92;0.73;;;;;;;;;;4984207;28;20029;-78
2021/05/11 18:59:34;;;;;;;1.60;0.90;;;;;;;;;;4981364;28;20029;-77
2021/05/11 19:02:00;;;;;;;1.73;0.90;;;;;;;;;;4976834;28;20026;-79